createdAt,value
2022-10-01T00:01:17.650Z,100890.56
2022-10-01T00:03:45.225Z,100892.88
2022-10-01T00:06:12.582Z,100888.97
2022-10-01T00:08:41.375Z,100898.25
2022-10-01T00:11:10.236Z,100895.94
2022-10-01T00:13:38.432Z,100895.94
2022-10-01T00:16:07.729Z,100887.25
2022-10-01T00:18:40.754Z,100892.38
2022-10-01T00:21:08.783Z,100896.53
2022-10-01T00:23:36.375Z,100889.22
2022-10-01T00:26:09.488Z,100883.38
2022-10-01T00:28:37.248Z,100896.28
2022-10-01T00:31:07.255Z,100885.97
2022-10-01T00:33:34.959Z,100891.88
2022-10-01T00:36:03.080Z,100892.41
2022-10-01T00:38:30.618Z,100891.53
2022-10-01T00:40:58.646Z,100898.56
2022-10-01T00:43:27.040Z,100901.38
2022-10-01T00:45:55.273Z,100898.25
2022-10-01T00:48:22.642Z,100898.75
2022-10-01T00:50:50.252Z,100897.38
2022-10-01T00:53:17.644Z,100897.69
2022-10-01T00:55:45.864Z,100888.69
2022-10-01T00:58:13.320Z,100892.31
2022-10-01T01:00:40.707Z,100901.25
2022-10-01T01:03:08.333Z,100897.31
2022-10-01T01:05:36.262Z,100898.75
2022-10-01T01:08:03.599Z,100896.25
2022-10-01T01:10:34.553Z,100902.34
2022-10-01T01:13:09.184Z,100887.22
2022-10-01T01:15:37.644Z,100897.06
2022-10-01T01:18:17.332Z,100891.53
2022-10-01T01:20:44.953Z,100897.47
2022-10-01T01:23:15.123Z,100901.09
2022-10-01T01:25:45.841Z,100898.31
2022-10-01T01:28:16.344Z,100895.50
2022-10-01T01:30:44.512Z,100899.66
2022-10-01T01:33:13.181Z,100900.50
2022-10-01T01:35:42.157Z,100899.13
2022-10-01T01:38:11.051Z,100901.97
2022-10-01T01:40:38.451Z,100903.94
2022-10-01T01:43:06.679Z,100907.25
2022-10-01T01:45:34.149Z,100911.28
2022-10-01T01:48:02.305Z,100907.59
2022-10-01T01:50:30.566Z,100906.00
2022-10-01T01:52:59.905Z,100906.81
2022-10-01T01:55:27.246Z,100899.50
2022-10-01T01:57:54.638Z,100913.59
2022-10-01T02:00:22.634Z,100912.81
2022-10-01T02:02:51.361Z,100906.06
2022-10-01T02:05:19.505Z,100906.13
2022-10-01T02:08:00.132Z,100907.22
2022-10-01T02:10:41.122Z,100907.75
2022-10-01T02:13:14.664Z,100914.47
2022-10-01T02:15:48.497Z,100909.19
2022-10-01T02:18:16.796Z,100901.91
2022-10-01T02:20:46.345Z,100910.00
2022-10-01T02:23:15.157Z,100911.13
2022-10-01T02:25:43.775Z,100905.00
2022-10-01T02:28:13.416Z,100910.56
2022-10-01T02:30:40.902Z,100914.50
2022-10-01T02:33:08.296Z,100910.25
2022-10-01T02:35:35.629Z,100900.75
2022-10-01T02:38:04.328Z,100902.72
2022-10-01T02:40:32.558Z,100895.41
2022-10-01T02:43:01.828Z,100900.47
2022-10-01T02:45:32.590Z,100910.88
2022-10-01T02:48:01.053Z,100911.13
2022-10-01T02:50:29.020Z,100909.69
2022-10-01T02:52:59.260Z,100909.44
2022-10-01T02:55:28.871Z,100912.28
2022-10-01T02:57:56.792Z,100906.66
2022-10-01T03:00:25.338Z,100910.84
2022-10-01T03:02:52.925Z,100917.31
2022-10-01T03:05:22.539Z,100912.81
2022-10-01T03:07:49.855Z,100908.31
2022-10-01T03:10:17.313Z,100906.59
2022-10-01T03:12:51.126Z,100915.84
2022-10-01T03:15:19.406Z,100910.56
2022-10-01T03:17:50.811Z,100910.84
2022-10-01T03:20:18.231Z,100926.81
2022-10-01T03:22:47.612Z,100915.06
2022-10-01T03:25:15.284Z,100913.66
2022-10-01T03:27:43.093Z,100917.25
2022-10-01T03:30:10.954Z,100913.38
2022-10-01T03:32:38.331Z,100911.66
2022-10-01T03:35:06.625Z,100914.50
2022-10-01T03:37:34.176Z,100920.94
2022-10-01T03:40:01.761Z,100914.81
2022-10-01T03:42:29.225Z,100921.75
2022-10-01T03:44:57.485Z,100919.53
2022-10-01T03:47:26.218Z,100926.25
2022-10-01T03:49:53.653Z,100931.59
2022-10-01T03:52:21.133Z,100933.56
2022-10-01T03:54:48.656Z,100928.22
2022-10-01T03:57:16.453Z,100928.22
2022-10-01T03:59:43.811Z,100919.56
2022-10-01T04:02:11.603Z,100925.69
2022-10-01T04:04:39.713Z,100919.78
2022-10-01T04:07:08.540Z,100919.50
2022-10-01T04:09:38.281Z,100929.00
2022-10-01T04:12:06.482Z,100924.50
2022-10-01T04:14:36.765Z,100917.53
2022-10-01T04:17:04.207Z,100916.69
2022-10-01T04:19:31.647Z,100932.34
2022-10-01T04:21:59.523Z,100921.13
2022-10-01T04:24:26.911Z,100917.78
2022-10-01T04:26:54.347Z,100930.06
2022-10-01T04:29:21.758Z,100926.13
2022-10-01T04:31:49.157Z,100921.66
2022-10-01T04:34:16.804Z,100919.50
2022-10-01T04:36:44.095Z,100927.00
2022-10-01T04:39:14.552Z,100931.75
2022-10-01T04:41:41.982Z,100928.66
2022-10-01T04:44:10.417Z,100933.97
2022-10-01T04:46:40.125Z,100923.91
2022-10-01T04:49:08.240Z,100927.22
2022-10-01T04:51:36.471Z,100916.56
2022-10-01T04:54:04.134Z,100930.31
2022-10-01T04:56:31.489Z,100928.06
2022-10-01T04:58:58.800Z,100923.53
2022-10-01T05:01:26.174Z,100923.44
2022-10-01T05:03:53.903Z,100926.47
2022-10-01T05:06:21.331Z,100929.53
2022-10-01T05:08:49.779Z,100930.13
2022-10-01T05:11:17.399Z,100933.81
2022-10-01T05:13:44.826Z,100925.72
2022-10-01T05:16:12.824Z,100927.34
2022-10-01T05:18:43.579Z,100922.91
2022-10-01T05:21:11.908Z,100931.25
2022-10-01T05:23:39.297Z,100921.31
2022-10-01T05:26:07.711Z,100918.56
2022-10-01T05:28:35.648Z,100916.22
2022-10-01T05:31:03.368Z,100913.88
2022-10-01T05:33:31.002Z,100916.09
2022-10-01T05:35:58.616Z,100924.78
2022-10-01T05:38:26.168Z,100921.56
2022-10-01T05:40:53.529Z,100923.22
2022-10-01T05:43:20.928Z,100935.31
2022-10-01T05:45:49.790Z,100927.06
2022-10-01T05:48:17.202Z,100929.22
2022-10-01T05:50:45.164Z,100929.03
2022-10-01T05:53:12.610Z,100938.53
2022-10-01T05:55:39.882Z,100938.78
2022-10-01T05:58:09.844Z,100935.66
2022-10-01T06:00:37.995Z,100930.41
2022-10-01T06:03:05.867Z,100944.75
2022-10-01T06:05:33.904Z,100937.94
2022-10-01T06:08:01.536Z,100931.38
2022-10-01T06:10:30.440Z,100930.50
2022-10-01T06:13:05.508Z,100945.56
2022-10-01T06:15:34.485Z,100934.78
2022-10-01T06:18:02.317Z,100933.41
2022-10-01T06:20:29.693Z,100928.56
2022-10-01T06:22:57.874Z,100929.16
2022-10-01T06:25:26.016Z,100935.38
2022-10-01T06:27:55.716Z,100930.28
2022-10-01T06:30:23.125Z,100934.13
2022-10-01T06:32:50.505Z,100931.19
2022-10-01T06:35:20.420Z,100940.53
2022-10-01T06:37:47.703Z,100940.31
2022-10-01T06:40:15.517Z,100940.69
2022-10-01T06:42:47.119Z,100940.63
2022-10-01T06:45:18.052Z,100938.41
2022-10-01T06:47:45.808Z,100949.66
2022-10-01T06:50:13.424Z,100943.78
2022-10-01T06:52:49.651Z,100944.63
2022-10-01T06:55:20.929Z,100945.38
2022-10-01T06:57:50.491Z,100945.38
2022-10-01T07:00:18.005Z,100946.44
2022-10-01T07:02:45.522Z,100944.22
2022-10-01T07:05:13.428Z,100945.09
2022-10-01T07:07:40.731Z,100947.69
2022-10-01T07:10:08.795Z,100945.91
2022-10-01T07:12:36.488Z,100951.38
2022-10-01T07:15:05.895Z,100931.97
2022-10-01T07:17:34.560Z,100938.41
2022-10-01T07:20:02.444Z,100944.56
2022-10-01T07:22:30.029Z,100943.47
2022-10-01T07:24:58.360Z,100942.25
2022-10-01T07:27:25.918Z,100941.41
2022-10-01T07:29:53.590Z,100948.56
2022-10-01T07:32:21.692Z,100940.50
2022-10-01T07:34:49.143Z,100941.78
2022-10-01T07:37:16.779Z,100943.94
2022-10-01T07:39:44.496Z,100934.13
2022-10-01T07:42:12.177Z,100937.13
2022-10-01T07:44:39.511Z,100940.97
2022-10-01T07:47:07.009Z,100945.53
2022-10-01T07:49:34.809Z,100941.91
2022-10-01T07:52:02.285Z,100936.44
2022-10-01T07:54:29.989Z,100933.91
2022-10-01T07:56:57.628Z,100923.19
2022-10-01T07:59:26.867Z,100932.91
2022-10-01T08:01:54.766Z,100930.34
2022-10-01T08:04:40.488Z,100924.19
2022-10-01T08:07:08.554Z,100929.09
2022-10-01T08:09:36.914Z,100919.53
2022-10-01T08:12:05.067Z,100912.97
2022-10-01T08:14:32.946Z,100914.84
2022-10-01T08:17:00.317Z,100906.81
2022-10-01T08:19:27.871Z,100916.06
2022-10-01T08:21:55.172Z,100934.00
2022-10-01T08:24:23.043Z,100930.97
2022-10-01T08:26:55.112Z,100921.22
2022-10-01T08:29:22.521Z,100906.53
2022-10-01T08:31:50.340Z,100914.59
2022-10-01T08:34:17.983Z,100910.28
2022-10-01T08:36:46.009Z,100898.44
2022-10-01T08:39:14.917Z,100905.44
2022-10-01T08:41:45.635Z,100906.53
2022-10-01T08:44:16.714Z,100899.22
2022-10-01T08:46:45.321Z,100909.56
2022-10-01T08:49:28.687Z,100909.78
2022-10-01T08:51:57.268Z,100914.31
2022-10-01T08:54:35.438Z,100902.09
2022-10-01T08:57:03.655Z,100890.25
2022-10-01T08:59:42.018Z,100902.72
2022-10-01T09:02:22.330Z,100881.31
2022-10-01T09:04:51.184Z,100879.69
2022-10-01T09:07:18.550Z,100877.00
2022-10-01T09:09:51.200Z,100878.16
2022-10-01T09:12:26.418Z,100875.53
2022-10-01T09:15:15.654Z,100887.56
2022-10-01T09:17:55.463Z,100873.94
2022-10-01T09:20:29.121Z,100871.50
2022-10-01T09:23:15.463Z,100884.03
2022-10-01T09:25:43.003Z,100869.13
2022-10-01T09:28:12.931Z,100864.53
2022-10-01T09:30:41.958Z,100878.66
2022-10-01T09:33:14.657Z,100868.50
2022-10-01T09:35:44.356Z,100862.75
2022-10-01T09:38:15.919Z,100871.22
2022-10-01T09:40:49.804Z,100859.31
2022-10-01T09:43:23.137Z,100869.94
2022-10-01T09:45:51.448Z,100862.03
2022-10-01T09:48:21.873Z,100863.84
2022-10-01T09:50:54.696Z,100857.22
2022-10-01T09:53:23.479Z,100861.03
2022-10-01T09:55:52.562Z,100859.81
2022-10-01T09:58:24.241Z,100859.97
2022-10-01T10:00:51.781Z,100857.34
2022-10-01T10:03:26.590Z,100861.66
2022-10-01T10:05:53.943Z,100861.03
2022-10-01T10:08:37.003Z,100845.97
2022-10-01T10:11:10.961Z,100842.44
2022-10-01T10:13:42.118Z,100845.16
2022-10-01T10:16:11.111Z,100845.91
2022-10-01T10:18:39.436Z,100843.97
2022-10-01T10:21:16.604Z,100850.44
2022-10-01T10:23:53.835Z,100835.91
2022-10-01T10:26:32.871Z,100840.00
2022-10-01T10:29:02.815Z,100848.66
2022-10-01T10:31:35.941Z,100845.59
2022-10-01T10:34:08.252Z,100830.13
2022-10-01T10:36:36.222Z,100831.66
2022-10-01T10:39:05.887Z,100824.91
2022-10-01T10:41:33.965Z,100833.38
2022-10-01T10:44:04.546Z,100815.06
2022-10-01T10:46:35.880Z,100810.88
2022-10-01T10:49:08.356Z,100810.44
2022-10-01T10:51:43.659Z,100839.53
2022-10-01T10:54:21.391Z,100812.22
2022-10-01T10:56:51.658Z,100809.94
2022-10-01T10:59:18.998Z,100802.63
2022-10-01T11:01:50.899Z,100814.75
2022-10-01T11:04:20.871Z,100814.22
2022-10-01T11:06:55.826Z,100814.56
2022-10-01T11:09:23.173Z,100805.22
2022-10-01T11:11:54.154Z,100810.22
2022-10-01T11:14:23.887Z,100795.63
2022-10-01T11:16:51.394Z,100802.78
2022-10-01T11:19:21.561Z,100812.59
2022-10-01T11:22:01.286Z,100805.31
2022-10-01T11:24:30.879Z,100796.84
2022-10-01T11:27:04.144Z,100811.31
2022-10-01T11:29:33.367Z,100809.66
2022-10-01T11:32:02.947Z,100795.16
2022-10-01T11:34:37.627Z,100798.84
2022-10-01T11:37:17.780Z,100792.00
2022-10-01T11:39:45.908Z,100813.63
2022-10-01T11:42:14.729Z,100810.16
2022-10-01T11:44:47.386Z,100816.47
2022-10-01T11:47:20.872Z,100810.47
2022-10-01T11:49:51.342Z,100818.75
2022-10-01T11:52:27.941Z,100802.34
2022-10-01T11:55:33.004Z,100802.00
2022-10-01T11:58:21.598Z,100813.28
2022-10-01T12:00:53.600Z,100803.78
2022-10-01T12:03:21.804Z,100788.34
2022-10-01T12:05:49.550Z,100796.34
2022-10-01T12:08:24.426Z,100793.50
2022-10-01T12:10:55.561Z,100801.34
2022-10-01T12:13:25.324Z,100798.16
2022-10-01T12:16:11.766Z,100799.31
2022-10-01T12:18:39.322Z,100795.16
2022-10-01T12:21:07.918Z,100796.81
2022-10-01T12:23:51.065Z,100797.84
2022-10-01T12:26:24.115Z,100791.69
2022-10-01T12:29:05.361Z,100790.69
2022-10-01T12:31:42.172Z,100782.69
2022-10-01T12:34:33.667Z,100775.53
2022-10-01T12:37:06.536Z,100777.34
2022-10-01T12:39:46.714Z,100788.94
2022-10-01T12:42:17.072Z,100779.28
2022-10-01T12:44:57.467Z,100782.09
2022-10-01T12:47:24.842Z,100787.63
2022-10-01T12:50:17.254Z,100778.13
2022-10-01T12:52:57.770Z,100777.28
2022-10-01T12:55:29.501Z,100784.16
2022-10-01T12:58:23.422Z,100779.66
2022-10-01T13:00:52.482Z,100765.53
2022-10-01T13:03:37.446Z,100773.19
2022-10-01T13:06:04.877Z,100773.00
2022-10-01T13:08:39.051Z,100767.84
2022-10-01T13:11:20.704Z,100769.88
2022-10-01T13:13:49.980Z,100783.00
2022-10-01T13:16:32.217Z,100763.00
2022-10-01T13:19:03.354Z,100772.19
2022-10-01T13:21:33.935Z,100771.84
2022-10-01T13:24:16.805Z,100776.16
2022-10-01T13:26:44.184Z,100770.53
2022-10-01T13:29:21.722Z,100769.88
2022-10-01T13:31:53.352Z,100770.53
2022-10-01T13:34:25.970Z,100775.69
2022-10-01T13:36:53.449Z,100775.69
2022-10-01T13:39:21.996Z,100772.56
2022-10-01T13:41:50.701Z,100773.69
2022-10-01T13:44:23.321Z,100765.88
2022-10-01T13:46:51.610Z,100761.75
2022-10-01T13:49:25.448Z,100762.72
2022-10-01T13:51:54.392Z,100751.06
2022-10-01T13:54:23.966Z,100751.38
2022-10-01T13:56:51.344Z,100751.22
2022-10-01T13:59:30.887Z,100738.72
2022-10-01T14:01:58.575Z,100743.22
2022-10-01T14:04:31.491Z,100743.06
2022-10-01T14:07:18.676Z,100736.28
2022-10-01T14:09:46.467Z,100739.75
2022-10-01T14:12:36.337Z,100737.75
2022-10-01T14:15:31.016Z,100736.44
2022-10-01T14:17:58.393Z,100735.91
2022-10-01T14:20:26.453Z,100729.78
2022-10-01T14:23:00.238Z,100731.91
2022-10-01T14:25:53.907Z,100727.63
2022-10-01T14:28:40.986Z,100729.25
2022-10-01T14:31:11.414Z,100725.75
2022-10-01T14:33:51.490Z,100725.78
2022-10-01T14:36:20.143Z,100722.44
2022-10-01T14:38:48.150Z,100714.94
2022-10-01T14:41:19.678Z,100714.25
2022-10-01T14:43:47.059Z,100709.09
2022-10-01T14:46:16.525Z,100712.88
2022-10-01T14:48:43.946Z,100701.47
2022-10-01T14:51:22.682Z,100704.88
2022-10-01T14:53:50.019Z,100699.41
2022-10-01T14:56:17.437Z,100698.75
2022-10-01T14:58:45.867Z,100699.06
2022-10-01T15:01:17.397Z,100705.97
2022-10-01T15:03:44.894Z,100700.03
2022-10-01T15:06:22.127Z,100699.97
2022-10-01T15:08:50.966Z,100700.16
2022-10-01T15:11:25.369Z,100703.94
2022-10-01T15:13:54.740Z,100701.72
2022-10-01T15:16:22.630Z,100695.22
2022-10-01T15:19:16.334Z,100695.75
2022-10-01T15:21:52.066Z,100695.63
2022-10-01T15:24:26.004Z,100691.94
2022-10-01T15:26:53.812Z,100683.06
2022-10-01T15:29:21.122Z,100686.38
2022-10-01T15:31:49.669Z,100683.59
2022-10-01T15:34:18.063Z,100691.56
2022-10-01T15:36:48.515Z,100688.72
2022-10-01T15:39:28.744Z,100690.69
2022-10-01T15:41:56.965Z,100680.88
2022-10-01T15:44:38.579Z,100677.88
2022-10-01T15:47:15.285Z,100677.22
2022-10-01T15:49:42.752Z,100677.88
2022-10-01T15:52:31.837Z,100669.78
2022-10-01T15:54:59.358Z,100667.56
2022-10-01T15:57:27.386Z,100661.22
2022-10-01T15:59:54.931Z,100657.53
2022-10-01T16:02:26.020Z,100664.03
2022-10-01T16:04:56.146Z,100660.03
2022-10-01T16:07:28.842Z,100656.44
2022-10-01T16:09:56.707Z,100655.75
2022-10-01T16:12:24.367Z,100662.34
2022-10-01T16:15:01.039Z,100659.22
2022-10-01T16:17:32.344Z,100660.06
2022-10-01T16:20:14.986Z,100655.88
2022-10-01T16:22:43.293Z,100654.59
2022-10-01T16:25:19.818Z,100653.19
2022-10-01T16:27:48.586Z,100648.00
2022-10-01T16:30:22.864Z,100636.94
2022-10-01T16:32:50.560Z,100635.97
2022-10-01T16:35:24.654Z,100629.94
2022-10-01T16:37:53.402Z,100622.09
2022-10-01T16:40:21.726Z,100620.47
2022-10-01T16:42:50.640Z,100616.69
2022-10-01T16:45:18.873Z,100617.59
2022-10-01T16:47:46.339Z,100615.03
2022-10-01T16:50:14.320Z,100599.56
2022-10-01T16:52:41.950Z,100604.97
2022-10-01T16:55:15.338Z,100601.97
2022-10-01T16:57:42.904Z,100602.31
2022-10-01T17:00:17.467Z,100602.03
2022-10-01T17:02:45.442Z,100605.78
2022-10-01T17:05:32.408Z,100598.34
2022-10-01T17:08:01.084Z,100595.06
2022-10-01T17:10:31.098Z,100588.25
2022-10-01T17:13:25.044Z,100596.34
2022-10-01T17:15:56.443Z,100593.03
2022-10-01T17:18:24.039Z,100585.53
2022-10-01T17:20:51.581Z,100580.41
2022-10-01T17:23:19.631Z,100580.28
2022-10-01T17:25:47.032Z,100577.72
2022-10-01T17:28:15.424Z,100572.97
2022-10-01T17:30:43.175Z,100576.06
2022-10-01T17:33:11.642Z,100569.13
2022-10-01T17:35:43.414Z,100572.41
2022-10-01T17:38:11.153Z,100569.38
2022-10-01T17:40:41.718Z,100567.66
2022-10-01T17:43:12.609Z,100562.16
2022-10-01T17:45:40.170Z,100569.34
2022-10-01T17:48:07.628Z,100570.63
2022-10-01T17:50:36.822Z,100570.16
2022-10-01T17:53:08.106Z,100571.31
2022-10-01T17:55:45.568Z,100556.66
2022-10-01T17:58:13.135Z,100545.84
2022-10-01T18:00:44.157Z,100544.63
2022-10-01T18:03:13.429Z,100536.53
2022-10-01T18:05:42.259Z,100544.03
2022-10-01T18:08:09.810Z,100537.31
2022-10-01T18:10:39.654Z,100532.69
2022-10-01T18:13:18.439Z,100528.66
2022-10-01T18:15:46.116Z,100530.41
2022-10-01T18:19:45.792Z,100524.25
2022-10-01T18:21:05.451Z,100519.19
2022-10-01T18:23:33.188Z,100517.59
2022-10-01T18:26:00.976Z,100518.66
2022-10-01T18:28:28.491Z,100518.78
2022-10-01T18:31:11.080Z,100512.47
2022-10-01T18:33:40.516Z,100509.84
2022-10-01T18:36:26.829Z,100509.19
2022-10-01T18:39:39.060Z,100504.78
2022-10-01T18:42:19.868Z,100511.69
2022-10-01T18:44:57.718Z,100517.91
2022-10-01T18:47:34.229Z,100509.13
2022-10-01T18:50:20.495Z,100512.63
2022-10-01T18:53:09.442Z,100496.03
2022-10-01T18:55:37.158Z,100500.84
2022-10-01T18:58:20.092Z,100499.88
2022-10-01T19:00:50.982Z,100502.63
2022-10-01T19:03:27.772Z,100490.38
2022-10-01T19:06:07.623Z,100493.94
2022-10-01T19:08:40.950Z,100495.91
2022-10-01T19:11:18.001Z,100495.13
2022-10-01T19:13:48.562Z,100498.47
2022-10-01T19:16:16.421Z,100487.59
2022-10-01T19:19:02.912Z,100482.53
2022-10-01T19:21:33.444Z,100472.53
2022-10-01T19:24:00.840Z,100466.22
2022-10-01T19:26:31.628Z,100465.13
2022-10-01T19:29:17.709Z,100464.41
2022-10-01T19:31:47.310Z,100464.41
2022-10-01T19:34:20.067Z,100462.00
2022-10-01T19:36:50.622Z,100459.81
2022-10-01T19:39:20.527Z,100462.63
2022-10-01T19:41:58.665Z,100442.91
2022-10-01T19:44:28.447Z,100447.03
2022-10-01T19:46:58.145Z,100449.19
2022-10-01T19:49:27.641Z,100451.25
2022-10-01T19:51:59.242Z,100442.94
2022-10-01T19:54:34.039Z,100445.94
2022-10-01T19:57:06.613Z,100452.53
2022-10-01T19:59:34.265Z,100440.31
2022-10-01T20:02:04.632Z,100438.63
2022-10-01T20:04:38.953Z,100444.53
2022-10-01T20:07:24.648Z,100436.16
2022-10-01T20:10:08.292Z,100429.19
2022-10-01T20:12:39.671Z,100434.38
2022-10-01T20:15:26.277Z,100429.84
2022-10-01T20:18:13.279Z,100425.38
2022-10-01T20:20:50.091Z,100428.72
2022-10-01T20:23:36.831Z,100433.53
2022-10-01T20:26:04.220Z,100427.50
2022-10-01T20:28:51.884Z,100426.88
2022-10-01T20:31:19.250Z,100424.00
2022-10-01T20:33:57.056Z,100430.06
2022-10-01T20:36:42.881Z,100420.38
2022-10-01T20:39:16.555Z,100412.28
2022-10-01T20:41:44.921Z,100412.75
2022-10-01T20:44:14.366Z,100407.38
2022-10-01T20:46:44.473Z,100414.88
2022-10-01T20:49:20.911Z,100404.88
2022-10-01T20:51:51.401Z,100404.28
2022-10-01T20:54:23.273Z,100407.69
2022-10-01T20:57:00.329Z,100403.09
2022-10-01T20:59:29.590Z,100398.84
2022-10-01T21:02:02.498Z,100386.97
2022-10-01T21:04:34.355Z,100390.13
2022-10-01T21:07:04.806Z,100375.72
2022-10-01T21:09:35.915Z,100387.34
2022-10-01T21:12:12.454Z,100384.72
2022-10-01T21:14:46.414Z,100391.66
2022-10-01T21:17:35.884Z,100378.66
2022-10-01T21:20:03.206Z,100383.25
2022-10-01T21:22:33.645Z,100381.25
2022-10-01T21:25:12.959Z,100383.88
2022-10-01T21:28:04.099Z,100370.13
2022-10-01T21:30:53.144Z,100371.19
2022-10-01T21:33:39.323Z,100367.22
2022-10-01T21:36:06.824Z,100368.91
2022-10-01T21:38:34.264Z,100371.50
2022-10-01T21:41:16.873Z,100360.59
2022-10-01T21:43:44.976Z,100360.38
2022-10-01T21:46:18.290Z,100350.78
2022-10-01T21:48:54.842Z,100354.34
2022-10-01T21:51:40.580Z,100335.19
2022-10-01T21:54:26.667Z,100342.06
2022-10-01T21:57:12.530Z,100338.00
2022-10-01T22:00:11.467Z,100329.03
2022-10-01T22:03:11.381Z,100321.16
2022-10-01T22:05:39.606Z,100311.69
2022-10-01T22:08:27.177Z,100315.81
2022-10-01T22:10:58.928Z,100311.13
2022-10-01T22:13:29.879Z,100300.22
2022-10-01T22:16:02.243Z,100299.38
2022-10-01T22:18:29.843Z,100297.22
2022-10-01T22:20:57.331Z,100298.03
2022-10-01T22:23:24.714Z,100295.03
2022-10-01T22:25:56.629Z,100293.25
2022-10-01T22:28:27.663Z,100292.81
2022-10-01T22:30:55.680Z,100283.91
2022-10-01T22:33:35.082Z,100274.97
2022-10-01T22:36:02.594Z,100275.47
2022-10-01T22:38:42.003Z,100272.78
2022-10-01T22:41:12.124Z,100272.31
2022-10-01T22:43:41.622Z,100259.94
2022-10-01T22:46:15.199Z,100256.72
2022-10-01T22:48:48.754Z,100255.28
2022-10-01T22:51:16.517Z,100247.41
2022-10-01T22:53:46.666Z,100240.59
2022-10-01T22:56:14.614Z,100239.94
2022-10-01T22:58:42.192Z,100237.78
2022-10-01T23:01:12.311Z,100226.53
2022-10-01T23:03:42.661Z,100236.63
2022-10-01T23:06:15.646Z,100221.53
2022-10-01T23:08:46.121Z,100225.31
2022-10-01T23:11:19.480Z,100219.19
2022-10-01T23:13:49.899Z,100211.22
2022-10-01T23:16:35.569Z,100204.00
2022-10-01T23:19:12.975Z,100206.41
2022-10-01T23:21:43.388Z,100195.75
2022-10-01T23:24:10.756Z,100200.53
2022-10-01T23:26:42.016Z,100209.00
2022-10-01T23:29:12.592Z,100201.50
2022-10-01T23:31:58.932Z,100199.22
2022-10-01T23:34:37.662Z,100192.13
2022-10-01T23:37:17.261Z,100189.66
2022-10-01T23:39:45.793Z,100181.19
2022-10-01T23:42:22.938Z,100177.34
2022-10-01T23:44:58.291Z,100172.16
2022-10-01T23:47:38.625Z,100160.28
2022-10-01T23:50:06.588Z,100169.44
2022-10-01T23:52:37.844Z,100165.75
2022-10-01T23:55:27.887Z,100155.78
2022-10-01T23:57:58.621Z,100163.88
